Time;durP1;ratioP1;P1;durP2;ratioP2;P2;SDS_P1;SDS_P2;PMS_P1;PMS_P2;Temp;Humidity;BMP_temperature;BMP_pressure;BME280_temperature;BME280_humidity;BME280_pressure;Samples;Min_cycle;Max_cycle;Signal;HPM_P1;HPM_P2
2023/01/07 00:01:16;;;;;;;6.45;4.60;;;;;;;-140.72;100.00;53117.34;5101384;28;20062;-72
2023/01/07 00:03:42;;;;;;;4.72;4.05;;;;;;;-140.72;100.00;53123.44;5096907;28;20015;-72
2023/01/07 00:06:10;;;;;;;5.05;3.83;;;;;;;-140.72;100.00;53127.50;5097715;28;20019;-75
2023/01/07 00:08:38;;;;;;;6.57;4.45;;;;;;;-140.72;100.00;53149.81;5100130;28;20024;-73
2023/01/07 00:11:12;;;;;;;5.38;3.38;;;;;;;-140.72;100.00;53093.00;5094505;28;20031;-75
2023/01/07 00:13:38;;;;;;;8.13;3.95;;;;;;;-140.72;100.00;53131.56;5100977;28;20028;-73
2023/01/07 00:16:07;;;;;;;6.07;3.97;;;;;;;-140.72;100.00;53107.19;5102286;28;20121;-72
2023/01/07 00:18:33;;;;;;;7.35;3.25;;;;;;;-140.72;100.00;53109.22;5094986;28;20066;-73
2023/01/07 00:21:00;;;;;;;6.72;3.47;;;;;;;-140.72;100.00;53099.09;5094445;28;20367;-71
2023/01/07 00:23:27;;;;;;;5.18;3.25;;;;;;;-140.72;100.00;53113.28;5094100;28;20021;-72
2023/01/07 00:25:59;;;;;;;5.22;3.03;;;;;;;-140.72;100.00;53121.41;5100079;28;20069;-72
2023/01/07 00:28:25;;;;;;;4.15;2.35;;;;;;;-140.72;100.00;53097.06;5097553;28;20045;-72
2023/01/07 00:30:50;;;;;;;5.05;2.95;;;;;;;-140.72;100.00;53117.34;5096847;28;20020;-73
2023/01/07 00:33:17;;;;;;;6.38;3.88;;;;;;;-140.72;100.00;53111.25;5122108;27;20474;-73
2023/01/07 00:35:44;;;;;;;13.18;2.90;;;;;;;-140.72;100.00;53125.47;5118443;27;20110;-71
2023/01/07 00:38:09;;;;;;;5.20;2.85;;;;;;;-140.72;100.00;53105.19;5121623;27;20144;-75
2023/01/07 00:40:35;;;;;;;5.35;2.55;;;;;;;-140.72;100.00;53141.69;5123688;27;20110;-73
2023/01/07 00:43:00;;;;;;;4.45;2.95;;;;;;;-140.72;100.00;53105.19;5120472;27;20042;-71
2023/01/07 00:45:29;;;;;;;7.57;3.00;;;;;;;-140.72;100.00;53133.59;5114308;27;20023;-73
2023/01/07 00:47:56;;;;;;;4.20;3.33;;;;;;;-140.72;100.00;53123.44;5118894;27;20083;-72
2023/01/07 00:50:24;;;;;;;3.45;2.58;;;;;;;-140.72;100.00;53127.50;5119718;27;20035;-71
2023/01/07 00:52:50;;;;;;;3.22;2.45;;;;;;;-140.72;100.00;53109.22;5115107;27;20135;-72
2023/01/07 00:55:18;;;;;;;5.63;2.35;;;;;;;-140.72;100.00;53078.78;5119148;27;20479;-72
2023/01/07 00:57:43;;;;;;;4.55;2.60;;;;;;;-140.72;100.00;53113.28;5120478;27;20304;-72
2023/01/07 01:00:11;;;;;;;4.32;2.63;;;;;;;-140.72;100.00;53137.66;5120893;27;20019;-72
2023/01/07 01:02:37;;;;;;;5.80;2.00;;;;;;;-140.72;100.00;53107.19;5114222;27;20481;-74
2023/01/07 01:05:04;;;;;;;4.05;2.30;;;;;;;-140.72;100.00;53090.97;5120229;27;20031;-71
2023/01/07 01:07:29;;;;;;;4.15;2.78;;;;;;;-140.72;100.00;53074.72;5119474;27;20019;-74
2023/01/07 01:09:55;;;;;;;4.57;2.40;;;;;;;-140.72;100.00;53121.41;5116295;27;20041;-74
2023/01/07 01:12:20;;;;;;;3.08;2.25;;;;;;;-140.72;100.00;53084.88;5114005;27;20475;-72
2023/01/07 01:14:45;;;;;;;5.18;2.80;;;;;;;-140.72;100.00;53125.47;5119320;27;20031;-74
2023/01/07 01:17:11;;;;;;;3.47;2.13;;;;;;;-140.72;100.00;53115.31;5122006;27;20473;-73
2023/01/07 01:19:36;;;;;;;4.65;2.72;;;;;;;-140.72;100.00;53121.41;5117590;27;20455;-73
2023/01/07 01:22:02;;;;;;;2.83;2.17;;;;;;;-140.72;100.00;53105.19;5118553;28;20038;-73
2023/01/07 01:24:27;;;;;;;6.75;2.80;;;;;;;-140.72;100.00;53080.81;5117859;28;20051;-72
2023/01/07 01:26:53;;;;;;;2.20;1.67;;;;;;;-140.72;100.00;53097.06;5115816;28;20043;-73
2023/01/07 01:29:18;;;;;;;3.92;2.28;;;;;;;-140.72;100.00;53117.34;5119483;28;20026;-74
2023/01/07 01:31:44;;;;;;;3.72;2.42;;;;;;;-140.72;100.00;53090.97;5113246;28;20062;-73
2023/01/07 01:34:09;;;;;;;3.70;2.55;;;;;;;-140.72;100.00;53105.19;5094256;28;20024;-72
2023/01/07 01:36:34;;;;;;;3.67;1.90;;;;;;;-140.72;100.00;53139.69;5101275;28;20031;-73
2023/01/07 01:39:00;;;;;;;4.75;3.30;;;;;;;-140.72;100.00;53078.78;5096531;28;20028;-72
2023/01/07 01:41:25;;;;;;;3.88;2.53;;;;;;;-140.72;100.00;53097.06;5086513;28;20111;-73
2023/01/07 01:43:51;;;;;;;3.00;1.67;;;;;;;-140.72;100.00;53117.34;5100305;28;20078;-72
2023/01/07 01:46:31;;;;;;;4.45;2.22;;;;;;;-140.72;100.00;53109.22;5098474;28;20164;-74
2023/01/07 01:49:22;;;;;;;3.20;2.28;;;;;;;-140.72;100.00;53101.13;5094477;28;20031;-73
2023/01/07 01:51:59;;;;;;;3.60;2.22;;;;;;;-140.72;100.00;53133.59;5096605;28;20081;-75
2023/01/07 01:54:26;;;;;;;3.58;2.90;;;;;;;-140.72;100.00;53121.41;5096805;28;20024;-74
2023/01/07 01:56:55;;;;;;;7.72;2.97;;;;;;;-140.72;100.00;53113.28;5102177;28;20031;-73
2023/01/07 01:59:24;;;;;;;7.53;3.33;;;;;;;-140.72;100.00;53117.34;5099903;28;20024;-72
2023/01/07 02:01:49;;;;;;;5.38;2.53;;;;;;;-140.72;100.00;53149.81;5094941;28;20039;-74
2023/01/07 02:04:18;;;;;;;6.38;3.40;;;;;;;-140.72;100.00;53095.03;5100585;28;20460;-73
2023/01/07 02:06:52;;;;;;;5.75;3.20;;;;;;;-140.72;100.00;53133.59;5098759;28;20521;-72
2023/01/07 02:09:18;;;;;;;6.53;3.80;;;;;;;-140.72;100.00;53121.41;5100363;28;20024;-73
2023/01/07 02:11:46;;;;;;;6.95;3.72;;;;;;;-140.72;100.00;53113.28;5103072;28;20065;-74
2023/01/07 02:14:23;;;;;;;4.60;4.05;;;;;;;-140.72;100.00;53105.19;5104054;28;20051;-73
2023/01/07 02:17:08;;;;;;;4.97;3.25;;;;;;;-140.72;100.00;53119.38;5103161;28;20081;-72
2023/01/07 02:19:59;;;;;;;7.32;3.58;;;;;;;-140.72;100.00;53129.53;5103716;28;20110;-73
2023/01/07 02:22:38;;;;;;;6.28;4.50;;;;;;;-140.72;100.00;53137.66;5102418;28;20464;-71
2023/01/07 02:25:33;;;;;;;6.53;3.80;;;;;;;-140.72;100.00;53141.69;5101413;28;20028;-72
2023/01/07 02:28:35;;;;;;;5.07;3.40;;;;;;;-140.72;100.00;53097.06;5072825;28;20081;-72
2023/01/07 02:31:03;;;;;;;5.32;3.38;;;;;;;-140.72;100.00;53113.28;5102952;28;20020;-73
2023/01/07 02:33:33;;;;;;;5.65;3.63;;;;;;;-140.72;100.00;53139.69;5122043;27;20076;-72
2023/01/07 02:36:23;;;;;;;7.20;3.13;;;;;;;-140.72;100.00;53119.38;5122685;27;20423;-73
2023/01/07 02:39:05;;;;;;;6.38;3.85;;;;;;;-140.72;100.00;53133.59;5123203;27;20485;-72
2023/01/07 02:41:49;;;;;;;4.40;2.85;;;;;;;-140.72;100.00;53149.81;5121730;27;20011;-73
2023/01/07 02:44:17;;;;;;;6.53;4.57;;;;;;;-140.72;100.00;53125.47;5120624;27;20057;-72
2023/01/07 02:46:50;;;;;;;7.15;4.15;;;;;;;-140.72;100.00;53115.31;5120506;27;20145;-72
2023/01/07 02:49:17;;;;;;;4.15;2.88;;;;;;;-140.72;100.00;53133.59;5122521;27;20035;-73
2023/01/07 02:51:42;;;;;;;5.35;3.28;;;;;;;-140.72;100.00;53141.69;5119494;27;20023;-74
2023/01/07 02:54:16;;;;;;;9.15;3.50;;;;;;;-140.72;100.00;53113.28;5117087;27;20068;-73
2023/01/07 02:56:51;;;;;;;5.22;2.95;;;;;;;-140.72;100.00;53093.00;5114356;27;20016;-72
2023/01/07 02:59:56;;;;;;;5.40;3.45;;;;;;;-140.72;100.00;53105.19;5118982;27;20519;-74
2023/01/07 03:02:48;;;;;;;6.05;2.97;;;;;;;-140.72;100.00;53127.50;5120273;27;20080;-73
2023/01/07 03:05:19;;;;;;;4.53;2.60;;;;;;;-140.72;100.00;53115.31;5120140;27;20489;-73
2023/01/07 03:08:12;;;;;;;6.70;3.33;;;;;;;-140.72;100.00;53113.28;5123342;27;20155;-73
2023/01/07 03:10:59;;;;;;;4.53;2.58;;;;;;;-140.72;100.00;53145.75;5122314;27;20018;-74
2023/01/07 03:13:49;;;;;;;6.53;3.17;;;;;;;-140.72;100.00;53123.44;5121780;27;20046;-73
2023/01/07 03:16:23;;;;;;;5.25;2.75;;;;;;;-140.72;100.00;53109.22;5121075;27;20035;-72
2023/01/07 03:18:58;;;;;;;5.97;2.90;;;;;;;-140.72;100.00;53093.00;5122870;27;20152;-74
2023/01/07 03:21:26;;;;;;;9.20;3.10;;;;;;;-140.72;100.00;53121.41;5115541;27;20423;-74
2023/01/07 03:23:55;;;;;;;5.20;2.58;;;;;;;-140.72;100.00;53149.81;5118971;27;20051;-74
2023/01/07 03:26:25;;;;;;;6.23;3.20;;;;;;;-140.72;100.00;53117.34;5118358;27;20026;-73
2023/01/07 03:28:53;;;;;;;4.38;3.10;;;;;;;-140.72;100.00;53119.38;5124068;27;20080;-74
2023/01/07 03:31:20;;;;;;;4.93;2.75;;;;;;;-140.72;100.00;53129.53;5125140;27;20160;-75
2023/01/07 03:34:08;;;;;;;8.05;3.65;;;;;;;-140.72;100.00;53139.69;5121750;27;20397;-72
2023/01/07 03:36:48;;;;;;;4.47;3.33;;;;;;;-140.72;100.00;53137.66;5121088;27;20031;-73
2023/01/07 03:39:15;;;;;;;5.18;3.17;;;;;;;-140.72;100.00;53117.34;5121282;27;20035;-73
2023/01/07 03:44:24;;;;;;;7.18;2.88;;;;;;;-140.72;100.00;53121.41;5122317;27;20036;-72
2023/01/07 03:46:51;;;;;;;7.80;3.55;;;;;;;-140.72;100.00;53113.28;5125262;27;20027;-74
2023/01/07 03:49:16;;;;;;;6.32;3.35;;;;;;;-140.72;100.00;53113.28;5120128;27;20482;-73
2023/01/07 03:51:42;;;;;;;4.68;2.80;;;;;;;-140.72;100.00;53133.59;5118753;27;20035;-73
2023/01/07 03:54:07;;;;;;;10.88;2.67;;;;;;;-140.72;100.00;53127.50;5120533;27;20160;-73
2023/01/07 03:56:32;;;;;;;4.35;2.65;;;;;;;-140.72;100.00;53072.69;5118335;27;20038;-73
2023/01/07 03:58:58;;;;;;;4.13;2.95;;;;;;;-140.72;100.00;53162.00;5124570;27;20015;-73
2023/01/07 04:01:24;;;;;;;5.25;2.90;;;;;;;-140.72;100.00;53141.69;5123120;27;20042;-74
2023/01/07 04:03:49;;;;;;;4.55;2.80;;;;;;;-140.72;100.00;53151.84;5121338;27;20088;-75
2023/01/07 04:06:14;;;;;;;3.78;2.80;;;;;;;-140.72;100.00;53125.47;5122402;27;20099;-74
2023/01/07 04:08:40;;;;;;;5.22;3.47;;;;;;;-140.72;100.00;53162.00;5123956;27;20417;-73
2023/01/07 04:11:05;;;;;;;9.43;3.13;;;;;;;-140.72;100.00;53115.31;5114431;27;20024;-74
2023/01/07 04:13:30;;;;;;;5.00;3.05;;;;;;;-140.72;100.00;53121.41;5120036;27;20524;-72
2023/01/07 04:15:56;;;;;;;5.10;3.38;;;;;;;-140.72;100.00;53129.53;5123387;27;20035;-73
2023/01/07 04:18:22;;;;;;;4.97;3.55;;;;;;;-140.72;100.00;53147.78;5118125;27;20071;-73
2023/01/07 04:20:50;;;;;;;8.48;3.35;;;;;;;-140.72;100.00;53088.94;5120888;27;20037;-74
2023/01/07 04:23:16;;;;;;;10.30;3.75;;;;;;;-140.72;100.00;53145.75;5119961;27;20027;-73
2023/01/07 04:25:44;;;;;;;5.28;3.35;;;;;;;-140.72;100.00;53123.44;5117726;27;20050;-73
2023/01/07 04:28:10;;;;;;;5.35;4.03;;;;;;;-140.72;100.00;53137.66;5119082;27;20020;-74
2023/01/07 04:30:37;;;;;;;5.47;3.50;;;;;;;-140.72;100.00;53127.50;5121005;27;20087;-74
2023/01/07 04:33:03;;;;;;;6.03;3.75;;;;;;;-140.72;100.00;53129.53;5119962;27;20059;-75
2023/01/07 04:35:28;;;;;;;6.75;3.83;;;;;;;-140.72;100.00;53155.91;5126575;27;20027;-73
2023/01/07 04:37:54;;;;;;;5.28;3.63;;;;;;;-140.72;100.00;53121.41;5117972;27;20201;-74
2023/01/07 04:40:19;;;;;;;5.35;3.67;;;;;;;-140.72;100.00;53123.44;5122576;27;20026;-72
2023/01/07 04:42:44;;;;;;;6.18;4.45;;;;;;;-140.72;100.00;53117.34;5119306;27;20084;-73
2023/01/07 04:45:10;;;;;;;5.50;3.58;;;;;;;-140.72;100.00;53123.44;5119286;27;20047;-74
2023/01/07 04:47:35;;;;;;;9.55;4.65;;;;;;;-140.72;100.00;53149.81;5118682;27;20063;-74
2023/01/07 04:50:01;;;;;;;7.10;3.75;;;;;;;-140.72;100.00;53141.69;5118486;27;20027;-72
2023/01/07 04:52:26;;;;;;;6.28;3.45;;;;;;;-140.72;100.00;53133.59;5120286;27;20023;-72
2023/01/07 04:54:51;;;;;;;7.10;4.47;;;;;;;-140.72;100.00;53155.91;5116834;27;20525;-73
2023/01/07 04:57:17;;;;;;;9.95;4.10;;;;;;;-140.72;100.00;53143.72;5117398;27;20370;-72
2023/01/07 04:59:42;;;;;;;8.25;4.13;;;;;;;-140.72;100.00;53131.56;5118047;27;20047;-72
2023/01/07 05:02:07;;;;;;;7.60;4.93;;;;;;;-140.72;100.00;53137.66;5122169;27;20071;-73
2023/01/07 05:04:33;;;;;;;6.78;4.03;;;;;;;-140.72;100.00;53159.97;5122494;27;20122;-73
2023/01/07 05:06:58;;;;;;;6.82;4.82;;;;;;;-140.72;100.00;53149.81;5120756;27;20023;-71
2023/01/07 05:09:23;;;;;;;8.90;4.63;;;;;;;-140.72;100.00;53206.66;5120885;27;20055;-70
2023/01/07 05:11:49;;;;;;;7.68;5.20;;;;;;;-140.72;100.00;53143.72;5120040;27;20027;-70
2023/01/07 05:14:17;;;;;;;6.85;4.80;;;;;;;-140.72;100.00;53141.69;5118306;27;20412;-72
2023/01/07 05:16:43;;;;;;;10.52;5.40;;;;;;;-140.72;100.00;53107.19;5114431;27;20035;-71
2023/01/07 05:19:10;;;;;;;6.78;5.18;;;;;;;-140.72;100.00;53147.78;5114991;27;20027;-73
2023/01/07 05:21:36;;;;;;;8.18;4.80;;;;;;;-140.72;100.00;53137.66;5122364;27;20023;-72
2023/01/07 05:24:05;;;;;;;7.18;4.72;;;;;;;-140.72;100.00;53153.88;5121216;27;20022;-71
2023/01/07 05:26:30;;;;;;;10.00;5.50;;;;;;;-140.72;100.00;53139.69;5119941;28;20027;-72
2023/01/07 05:28:57;;;;;;;10.57;5.35;;;;;;;-140.72;100.00;53166.06;5119387;27;20589;-73
2023/01/07 05:31:22;;;;;;;8.82;5.22;;;;;;;-140.72;100.00;53137.66;5120542;28;20016;-72
2023/01/07 05:33:48;;;;;;;5.65;4.43;;;;;;;-140.72;100.00;53149.81;5121395;28;20037;-72
2023/01/07 05:36:13;;;;;;;7.18;4.70;;;;;;;-140.72;100.00;53178.22;5116448;28;20039;-71
2023/01/07 05:38:38;;;;;;;8.98;5.15;;;;;;;-140.72;100.00;53184.31;5117140;28;20027;-70
2023/01/07 05:41:04;;;;;;;7.18;4.40;;;;;;;-140.72;100.00;53121.41;5115548;28;20355;-72
2023/01/07 05:43:30;;;;;;;6.30;4.40;;;;;;;-140.72;100.00;53188.38;5120310;28;20060;-71
2023/01/07 05:45:56;;;;;;;6.22;4.28;;;;;;;-140.72;100.00;53168.09;5116898;28;20661;-72
2023/01/07 05:48:21;;;;;;;11.57;5.20;;;;;;;-140.72;100.00;53178.22;5116257;28;20042;-73
2023/01/07 05:50:47;;;;;;;11.30;5.13;;;;;;;-140.72;100.00;53174.19;5117707;28;20035;-71
2023/01/07 05:53:12;;;;;;;9.13;4.93;;;;;;;-140.72;100.00;53198.53;5122746;28;20077;-71
2023/01/07 05:55:38;;;;;;;9.63;4.47;;;;;;;-140.72;100.00;53125.47;5119124;28;20072;-71
2023/01/07 05:58:05;;;;;;;6.90;3.97;;;;;;;-140.72;100.00;53178.22;5118053;28;20024;-71
2023/01/07 06:00:30;;;;;;;5.97;3.70;;;;;;;-140.72;100.00;53147.78;5113402;28;20038;-71
2023/01/07 06:02:55;;;;;;;15.23;5.50;;;;;;;-140.72;100.00;53149.81;5104241;28;20039;-73
2023/01/07 06:05:21;;;;;;;5.88;3.85;;;;;;;-140.72;100.00;53182.28;5121795;28;20515;-72
2023/01/07 06:07:47;;;;;;;8.48;5.18;;;;;;;-140.72;100.00;53172.16;5122769;28;20023;-74
2023/01/07 06:10:12;;;;;;;6.40;3.85;;;;;;;-140.72;100.00;53119.38;5117714;28;20035;-71
2023/01/07 06:12:38;;;;;;;6.82;4.50;;;;;;;-140.72;100.00;53129.53;5117816;28;20055;-71
2023/01/07 06:15:06;;;;;;;7.18;3.45;;;;;;;-140.72;100.00;53157.94;5120047;28;20447;-72
2023/01/07 06:17:32;;;;;;;8.68;4.20;;;;;;;-140.72;100.00;53137.66;5115366;28;20087;-71
2023/01/07 06:19:58;;;;;;;8.13;3.42;;;;;;;-140.72;100.00;53159.97;5120921;28;20110;-70
2023/01/07 06:22:23;;;;;;;3.55;2.83;;;;;;;-140.72;100.00;53139.69;5116991;28;20027;-73
2023/01/07 06:24:49;;;;;;;3.72;2.53;;;;;;;-140.72;100.00;53157.94;5117843;28;20023;-72
2023/01/07 06:27:14;;;;;;;7.45;3.40;;;;;;;-140.72;100.00;53168.09;5118477;28;20029;-71
2023/01/07 06:29:40;;;;;;;6.18;2.40;;;;;;;-140.72;100.00;53151.84;5117282;28;20468;-71
2023/01/07 06:32:05;;;;;;;4.60;3.15;;;;;;;-140.72;100.00;53172.16;5111664;28;20066;-72
2023/01/07 06:34:31;;;;;;;6.32;3.25;;;;;;;-140.72;100.00;53178.22;5094005;28;20036;-71
2023/01/07 06:36:56;;;;;;;4.18;2.40;;;;;;;-140.72;100.00;53168.09;5094807;28;20031;-72
2023/01/07 06:39:22;;;;;;;3.92;2.42;;;;;;;-140.72;100.00;53103.16;5097725;28;20042;-71
2023/01/07 06:41:47;;;;;;;5.60;2.45;;;;;;;-140.72;100.00;53125.47;5098856;28;20052;-71
2023/01/07 06:44:13;;;;;;;3.50;2.05;;;;;;;-140.72;100.00;53113.28;5104642;28;20082;-73
2023/01/07 06:46:38;;;;;;;4.90;2.20;;;;;;;-140.72;100.00;53166.06;5103545;28;20039;-74
2023/01/07 06:49:03;;;;;;;3.38;1.42;;;;;;;-140.72;100.00;53168.09;5107075;28;20038;-71
2023/01/07 06:51:29;;;;;;;3.50;1.77;;;;;;;-140.72;100.00;53166.06;5097145;28;20023;-73
2023/01/07 06:53:55;;;;;;;4.30;1.98;;;;;;;-140.72;100.00;53162.00;5104361;28;20015;-72
2023/01/07 06:56:20;;;;;;;3.92;2.00;;;;;;;-140.72;100.00;53190.41;5098797;27;20465;-71
2023/01/07 06:58:48;;;;;;;2.47;1.88;;;;;;;-140.72;100.00;53151.84;5101880;28;20065;-72
2023/01/07 07:01:14;;;;;;;2.83;1.77;;;;;;;-140.72;100.00;53109.22;5099070;28;20062;-72
2023/01/07 07:03:39;;;;;;;2.75;1.58;;;;;;;-140.72;100.00;53194.47;5108127;28;20046;-74
2023/01/07 07:06:05;;;;;;;3.72;1.48;;;;;;;-140.72;100.00;53170.13;5105527;28;20015;-73
2023/01/07 07:08:30;;;;;;;2.58;1.40;;;;;;;-140.72;100.00;53111.25;5100914;28;20367;-73
2023/01/07 07:10:55;;;;;;;2.92;1.70;;;;;;;-140.72;100.00;53149.81;5098833;28;20103;-73
2023/01/07 07:13:21;;;;;;;4.00;1.52;;;;;;;-140.72;100.00;53151.84;5110303;28;20471;-71
2023/01/07 07:15:48;;;;;;;1.45;0.90;;;;;;;-140.72;100.00;53129.53;5100671;28;20103;-72
2023/01/07 07:18:14;;;;;;;1.98;0.90;;;;;;;-140.72;100.00;53143.72;5094186;28;20020;-72
2023/01/07 07:20:39;;;;;;;2.28;1.20;;;;;;;-140.72;100.00;53141.69;5101111;28;20024;-73
2023/01/07 07:23:05;;;;;;;2.05;1.05;;;;;;;-140.72;100.00;53135.63;5101885;28;20024;-73
2023/01/07 07:25:30;;;;;;;1.63;0.88;;;;;;;-140.72;100.00;53153.88;5100774;28;20027;-71
2023/01/07 07:27:55;;;;;;;2.95;1.60;;;;;;;-140.72;100.00;53115.31;5102888;28;20034;-74
2023/01/07 07:30:21;;;;;;;3.50;1.17;;;;;;;-140.72;100.00;53119.38;5095763;28;20495;-73
2023/01/07 07:32:46;;;;;;;2.35;1.00;;;;;;;-140.72;100.00;53137.66;5115914;27;20473;-71
2023/01/07 07:35:12;;;;;;;3.03;1.35;;;;;;;-140.72;100.00;53119.38;5121637;27;20031;-72
2023/01/07 07:37:38;;;;;;;2.92;1.15;;;;;;;-140.72;100.00;53115.31;5126892;27;20126;-73
2023/01/07 07:40:04;;;;;;;3.17;0.98;;;;;;;-140.72;100.00;53107.19;5116503;27;20031;-72
2023/01/07 07:42:30;;;;;;;3.40;1.05;;;;;;;-140.72;100.00;53135.63;5126937;27;20027;-72
2023/01/07 07:44:55;;;;;;;2.40;1.13;;;;;;;-140.72;100.00;53109.22;5122993;27;20019;-74
2023/01/07 07:47:21;;;;;;;3.85;0.93;;;;;;;-140.72;100.00;53107.19;5122567;27;20054;-72
2023/01/07 07:49:46;;;;;;;0.90;0.57;;;;;;;-140.72;100.00;53137.66;5117133;27;20371;-71
2023/01/07 07:52:12;;;;;;;1.98;0.95;;;;;;;-140.72;100.00;53137.66;5121974;27;20474;-71
2023/01/07 07:54:37;;;;;;;2.17;0.98;;;;;;;-140.72;100.00;53141.69;5120663;27;20034;-74
2023/01/07 07:57:02;;;;;;;1.50;0.57;;;;;;;-140.72;100.00;53109.22;5119748;27;20030;-72
2023/01/07 07:59:29;;;;;;;1.50;1.00;;;;;;;-140.72;100.00;53153.88;5121566;27;20027;-71
2023/01/07 08:01:54;;;;;;;2.67;0.98;;;;;;;-140.72;100.00;53149.81;5120825;27;20038;-72
2023/01/07 08:04:22;;;;;;;3.30;0.95;;;;;;;-140.72;100.00;53141.69;5117205;27;20053;-71
2023/01/07 08:06:48;;;;;;;1.92;0.85;;;;;;;-140.72;100.00;53143.72;5120493;27;20039;-71
2023/01/07 08:09:13;;;;;;;2.13;0.85;;;;;;;-140.72;100.00;53147.78;5124532;27;20019;-72
2023/01/07 08:11:38;;;;;;;1.25;0.68;;;;;;;-140.72;100.00;53143.72;5121703;27;20466;-72
2023/01/07 08:14:04;;;;;;;0.57;0.40;;;;;;;-140.72;100.00;53119.38;5117151;27;20174;-74
2023/01/07 08:16:29;;;;;;;0.98;0.60;;;;;;;-140.72;100.00;53117.34;5124450;27;20031;-72
2023/01/07 08:18:55;;;;;;;1.55;0.88;;;;;;;-140.72;100.00;53125.47;5123242;27;20035;-71
2023/01/07 08:21:20;;;;;;;1.00;0.80;;;;;;;-140.72;100.00;53137.66;5115430;27;20031;-72
2023/01/07 08:23:45;;;;;;;2.53;1.02;;;;;;;-140.72;100.00;53145.75;5117936;27;20030;-72
2023/01/07 08:26:11;;;;;;;1.90;1.08;;;;;;;-140.72;100.00;53133.59;5120102;27;20050;-73
2023/01/07 08:28:37;;;;;;;2.67;1.05;;;;;;;-140.72;100.00;53147.78;5119754;27;20069;-71
2023/01/07 08:31:05;;;;;;;1.35;0.75;;;;;;;-140.72;100.00;53117.34;5116485;27;20019;-72
2023/01/07 08:33:36;;;;;;;1.90;0.90;;;;;;;-140.72;100.00;53137.66;5103555;28;20492;-73
2023/01/07 08:36:03;;;;;;;1.23;0.60;;;;;;;-140.72;100.00;53153.88;5099235;28;20065;-72
2023/01/07 08:38:30;;;;;;;1.42;0.80;;;;;;;-140.72;100.00;53157.94;5110912;28;20023;-73
2023/01/07 08:40:56;;;;;;;1.38;0.70;;;;;;;-140.72;100.00;53097.06;5087177;28;20016;-71
2023/01/07 08:43:22;;;;;;;0.70;0.60;;;;;;;-140.72;100.00;53109.22;5097470;28;20172;-74
2023/01/07 08:45:48;;;;;;;1.02;0.68;;;;;;;-140.72;100.00;53123.44;5099903;28;20027;-74
2023/01/07 08:48:14;;;;;;;1.33;0.65;;;;;;;-140.72;100.00;53099.09;5087224;28;20023;-72
2023/01/07 08:50:39;;;;;;;1.20;0.50;;;;;;;-140.72;100.00;53119.38;5095979;28;20114;-71
2023/01/07 08:53:05;;;;;;;1.75;0.60;;;;;;;-140.72;100.00;53141.69;5106690;28;20035;-72
2023/01/07 08:55:30;;;;;;;1.08;0.57;;;;;;;-140.72;100.00;53164.03;5096605;28;20415;-71
2023/01/07 08:57:57;;;;;;;1.52;0.80;;;;;;;-140.72;100.00;53119.38;5100864;28;20433;-70
2023/01/07 09:00:23;;;;;;;3.13;0.63;;;;;;;-140.72;100.00;53103.16;5099108;28;20019;-72
2023/01/07 09:02:48;;;;;;;4.13;0.82;;;;;;;-140.72;100.00;53093.00;5103530;28;20019;-72
2023/01/07 09:05:14;;;;;;;1.17;0.70;;;;;;;-140.72;100.00;53174.19;5092453;28;20024;-72
2023/01/07 09:07:39;;;;;;;1.30;0.80;;;;;;;-140.72;100.00;53113.28;5098845;28;20016;-73
2023/01/07 09:10:06;;;;;;;1.15;0.63;;;;;;;-140.72;100.00;53117.34;5107301;28;20028;-72
2023/01/07 09:12:31;;;;;;;3.35;0.88;;;;;;;-140.72;100.00;53109.22;5109295;28;20114;-72
2023/01/07 09:14:57;;;;;;;0.95;0.50;;;;;;;-140.72;100.00;53107.19;5094148;28;20114;-74
2023/01/07 09:17:22;;;;;;;1.55;0.50;;;;;;;-140.72;100.00;53115.31;5091112;28;20081;-72
2023/01/07 09:19:48;;;;;;;0.80;0.45;;;;;;;-140.72;100.00;53115.31;5094515;28;20287;-73
2023/01/07 09:22:13;;;;;;;2.25;0.80;;;;;;;-140.72;100.00;53141.69;5091274;28;20020;-72
2023/01/07 09:24:38;;;;;;;2.10;0.52;;;;;;;-140.72;100.00;53141.69;5101738;28;20453;-71
2023/01/07 09:27:04;;;;;;;1.27;0.60;;;;;;;-140.72;100.00;53137.66;5105891;28;20047;-75
2023/01/07 09:29:29;;;;;;;2.28;0.38;;;;;;;-140.72;100.00;53125.47;5096125;28;20452;-72
2023/01/07 09:31:55;;;;;;;2.47;0.80;;;;;;;-140.72;100.00;53084.88;5101216;28;20031;-71
2023/01/07 09:34:20;;;;;;;1.80;0.55;;;;;;;-140.72;100.00;53123.44;5122954;28;20086;-72
2023/01/07 09:36:45;;;;;;;0.60;0.40;;;;;;;-140.72;100.00;53123.44;5117691;28;20035;-72
2023/01/07 09:39:11;;;;;;;1.48;0.60;;;;;;;-140.72;100.00;53113.28;5127862;28;20374;-75
2023/01/07 09:41:40;;;;;;;1.27;0.73;;;;;;;-140.72;100.00;53127.50;5130827;28;20034;-72
2023/01/07 09:44:21;;;;;;;0.73;0.38;;;;;;;-140.72;100.00;53062.56;5127576;28;20034;-74
2023/01/07 09:46:48;;;;;;;2.28;0.68;;;;;;;-140.72;100.00;53105.19;5110920;28;20031;-72
2023/01/07 09:49:21;;;;;;;3.00;1.13;;;;;;;-140.72;100.00;53141.69;5115675;28;20024;-71
2023/01/07 09:52:11;;;;;;;1.42;0.68;;;;;;;-140.72;100.00;53088.94;5117648;28;20375;-73
2023/01/07 09:54:38;;;;;;;0.85;0.65;;;;;;;-140.72;100.00;53105.19;5112352;28;20024;-73
2023/01/07 09:57:04;;;;;;;0.63;0.30;;;;;;;-140.72;100.00;53105.19;5120975;28;20034;-72
2023/01/07 09:59:30;;;;;;;1.50;0.63;;;;;;;-140.72;100.00;53050.38;5110260;28;21212;-72
2023/01/07 10:02:17;;;;;;;1.17;0.50;;;;;;;-140.72;100.00;53060.53;5114652;28;20040;-73
2023/01/07 10:05:17;;;;;;;5.30;0.40;;;;;;;-140.72;100.00;53097.06;5117343;28;20015;-72
2023/01/07 10:08:02;;;;;;;1.27;0.70;;;;;;;-140.72;100.00;53086.91;5115188;28;20023;-74
2023/01/07 10:10:43;;;;;;;1.15;0.50;;;;;;;-140.72;100.00;53048.34;5127185;28;20030;-72
2023/01/07 10:13:26;;;;;;;0.70;0.40;;;;;;;-140.72;100.00;53060.53;5118795;28;20022;-71
2023/01/07 10:16:13;;;;;;;1.00;0.38;;;;;;;-140.72;100.00;53064.59;5116468;27;20023;-73
2023/01/07 10:18:54;;;;;;;1.13;0.75;;;;;;;-140.72;100.00;53068.66;5123421;27;20110;-70
2023/01/07 10:21:33;;;;;;;1.77;0.47;;;;;;;-140.72;100.00;53056.47;5117723;27;20568;-72
2023/01/07 10:24:08;;;;;;;1.17;0.43;;;;;;;-140.72;100.00;53074.72;5117763;27;20027;-73
2023/01/07 10:26:55;;;;;;;0.22;0.20;;;;;;;-140.72;100.00;53082.84;5129037;27;20758;-72
2023/01/07 10:29:53;;;;;;;0.40;0.25;;;;;;;-140.72;100.00;53036.16;5126617;27;20418;-72
2023/01/07 10:32:21;;;;;;;2.40;0.60;;;;;;;-140.72;100.00;53093.00;5121841;27;20123;-74
2023/01/07 10:34:49;;;;;;;0.90;0.40;;;;;;;-140.72;100.00;53080.81;5124560;27;20421;-73
2023/01/07 10:37:14;;;;;;;0.73;0.50;;;;;;;-140.72;100.00;53097.06;5125502;27;20374;-71
2023/01/07 10:39:51;;;;;;;0.30;0.20;;;;;;;-140.72;100.00;53040.22;5116053;27;20031;-72
2023/01/07 10:42:30;;;;;;;0.75;0.35;;;;;;;-140.72;100.00;53011.81;5113667;28;20020;-71
2023/01/07 10:45:14;;;;;;;5.28;0.45;;;;;;;-140.72;100.00;53046.31;5111745;27;20463;-72
2023/01/07 10:48:15;;;;;;;0.93;0.52;;;;;;;-140.72;100.00;53056.47;5122754;27;20039;-74
2023/01/07 10:51:18;;;;;;;0.80;0.52;;;;;;;-140.72;100.00;53032.13;5125284;27;20031;-73
2023/01/07 10:54:11;;;;;;;0.82;0.40;;;;;;;-140.72;100.00;53064.59;5128239;27;20019;-72
2023/01/07 10:56:39;;;;;;;1.55;0.60;;;;;;;-140.72;100.00;53082.84;5122964;27;20114;-74
2023/01/07 10:59:12;;;;;;;1.55;0.57;;;;;;;-140.72;100.00;53066.63;5121927;27;20035;-73
2023/01/07 11:01:39;;;;;;;0.90;0.43;;;;;;;-140.72;100.00;53044.28;5115084;27;20076;-73
2023/01/07 11:04:14;;;;;;;1.23;0.47;;;;;;;-140.72;100.00;53119.38;5119505;27;20228;-73
2023/01/07 11:06:45;;;;;;;0.95;0.50;;;;;;;-140.72;100.00;53103.16;5119383;27;20381;-72
2023/01/07 11:09:16;;;;;;;1.75;0.68;;;;;;;-140.72;100.00;53052.41;5126296;27;20415;-72
2023/01/07 11:11:44;;;;;;;1.85;0.40;;;;;;;-140.72;100.00;53054.44;5115135;27;20024;-73
2023/01/07 11:14:14;;;;;;;0.80;0.70;;;;;;;-140.72;100.00;53088.94;5124753;27;20061;-74
2023/01/07 11:16:46;;;;;;;;;;;;;;;-140.72;100.00;53070.69;5125592;27;20030;-74
2023/01/07 11:19:11;;;;;;;2.03;1.00;;;;;;;-140.72;100.00;53052.41;5112144;27;19919;-74
2023/01/07 11:21:46;;;;;;;2.10;0.63;;;;;;;-140.72;100.00;53052.41;5122702;27;20016;-73